createdAt,value
2018-08-19T00:00:01.142Z,100690.98
2018-08-19T00:02:31.360Z,100693.55
2018-08-19T00:05:08.137Z,100690.73
2018-08-19T00:07:38.267Z,100691.45
2018-08-19T00:10:08.523Z,100691.87
2018-08-19T00:12:45.060Z,100685.23
2018-08-19T00:15:15.913Z,100692.91
2018-08-19T00:17:46.370Z,100685.74
2018-08-19T00:20:16.576Z,100687.81
2018-08-19T00:22:48.285Z,100689.88
2018-08-19T00:25:28.816Z,100691.64
2018-08-19T00:27:59.333Z,100677.33
2018-08-19T00:30:31.166Z,100678.98
2018-08-19T00:33:01.692Z,100686.12
2018-08-19T00:35:33.028Z,100674.92
2018-08-19T00:38:03.825Z,100672.22
2018-08-19T00:40:34.137Z,100667.56
2018-08-19T00:43:04.190Z,100678.33
2018-08-19T00:45:34.220Z,100680.08
2018-08-19T00:48:04.365Z,100684.00
2018-08-19T00:50:34.401Z,100683.59
2018-08-19T00:53:04.557Z,100685.66
2018-08-19T00:55:40.200Z,100691.76
2018-08-19T00:58:16.258Z,100692.47
2018-08-19T01:00:46.746Z,100685.83
2018-08-19T01:03:20.716Z,100695.97
2018-08-19T01:05:51.288Z,100690.77
2018-08-19T01:08:21.285Z,100686.83
2018-08-19T01:10:51.554Z,100690.23
2018-08-19T01:13:22.002Z,100684.44
2018-08-19T01:15:52.341Z,100688.00
2018-08-19T01:18:22.604Z,100690.59
2018-08-19T01:21:02.725Z,100690.99
2018-08-19T01:23:32.983Z,100685.16
2018-08-19T01:26:03.710Z,100691.98
2018-08-19T01:28:36.528Z,100689.69
2018-08-19T01:31:06.545Z,100689.59
2018-08-19T01:33:36.525Z,100686.13
2018-08-19T01:36:06.599Z,100686.53
2018-08-19T01:38:36.374Z,100692.84
2018-08-19T01:41:06.396Z,100692.20
2018-08-19T01:43:36.387Z,100688.04
2018-08-19T01:46:06.412Z,100690.31
2018-08-19T01:48:36.413Z,100693.36
2018-08-19T01:51:07.553Z,100695.95
2018-08-19T01:53:37.636Z,100687.65
2018-08-19T01:56:07.885Z,100692.89
2018-08-19T01:58:42.325Z,100690.59
2018-08-19T02:01:12.475Z,100687.80
2018-08-19T02:03:42.517Z,100684.66
2018-08-19T02:06:12.456Z,100689.23
2018-08-19T02:08:42.338Z,100658.48
2018-08-19T02:11:25.581Z,100679.26
2018-08-19T02:13:56.304Z,100684.72
2018-08-19T02:16:26.155Z,100681.08
2018-08-19T02:18:55.980Z,100688.29
2018-08-19T02:21:25.806Z,100686.52
2018-08-19T02:23:56.196Z,100687.70
2018-08-19T02:26:30.134Z,100692.44
2018-08-19T02:29:00.678Z,100699.86
2018-08-19T02:31:30.485Z,100688.23
2018-08-19T02:34:00.320Z,100694.24
2018-08-19T02:36:35.242Z,100697.64
2018-08-19T02:39:05.300Z,100704.75
2018-08-19T02:41:35.404Z,100705.66
2018-08-19T02:44:05.501Z,100706.55
2018-08-19T02:46:35.472Z,100711.28
2018-08-19T02:49:05.542Z,100711.67
2018-08-19T02:51:35.657Z,100710.72
2018-08-19T02:54:05.595Z,100718.66
2018-08-19T02:56:35.479Z,100716.36
2018-08-19T02:59:05.469Z,100716.05
2018-08-19T03:01:35.469Z,100718.91
2018-08-19T03:04:05.906Z,100715.27
2018-08-19T03:06:37.144Z,100710.59
2018-08-19T03:09:09.520Z,100722.86
2018-08-19T03:11:39.417Z,100723.06
2018-08-19T03:14:09.359Z,100721.47
2018-08-19T03:16:39.208Z,100720.30
2018-08-19T03:19:08.970Z,100720.51
2018-08-19T03:21:39.215Z,100723.37
2018-08-19T03:24:09.038Z,100726.44
2018-08-19T03:26:39.074Z,100718.91
2018-08-19T03:29:13.958Z,100719.92
2018-08-19T03:31:44.156Z,100718.97
2018-08-19T03:34:13.952Z,100718.33
2018-08-19T03:36:43.975Z,100711.67
2018-08-19T03:39:18.469Z,100714.47
2018-08-19T03:41:48.263Z,100717.37
2018-08-19T03:44:18.441Z,100719.41
2018-08-19T03:46:48.256Z,100719.79
2018-08-19T03:49:18.654Z,100727.52
2018-08-19T03:51:48.508Z,100720.49
2018-08-19T03:54:18.372Z,100715.30
2018-08-19T03:56:48.233Z,100717.66
2018-08-19T03:59:18.037Z,100723.55
2018-08-19T04:01:48.032Z,100728.92
2018-08-19T04:04:18.633Z,100724.58
2018-08-19T04:06:48.946Z,100721.89
2018-08-19T04:09:18.906Z,100721.05
2018-08-19T04:11:58.596Z,100723.62
2018-08-19T04:14:30.734Z,100721.63
2018-08-19T04:17:02.777Z,100731.69
2018-08-19T04:19:32.874Z,100730.03
2018-08-19T04:22:05.963Z,100729.70
2018-08-19T04:24:36.620Z,100732.13
2018-08-19T04:27:07.903Z,100740.50
2018-08-19T04:29:38.413Z,100747.38
2018-08-19T04:32:12.375Z,100744.20
2018-08-19T04:34:42.630Z,100749.57
2018-08-19T04:37:12.483Z,100747.27
2018-08-19T04:39:42.478Z,100745.33
2018-08-19T04:42:12.328Z,100751.72
2018-08-19T04:44:42.204Z,100755.10
2018-08-19T04:47:23.121Z,100755.59
2018-08-19T04:49:54.128Z,100760.84
2018-08-19T04:52:25.177Z,100747.59
2018-08-19T04:54:56.356Z,100745.81
2018-08-19T04:57:26.156Z,100739.92
2018-08-19T04:59:55.969Z,100741.73
2018-08-19T05:02:26.005Z,100738.03
2018-08-19T05:04:56.080Z,100731.97
2018-08-19T05:07:26.035Z,100737.98
2018-08-19T05:09:55.954Z,100739.00
2018-08-19T05:12:28.505Z,100733.58
2018-08-19T05:14:58.561Z,100733.43
2018-08-19T05:17:28.455Z,100733.38
2018-08-19T05:20:11.962Z,100741.20
2018-08-19T05:22:42.181Z,100732.77
2018-08-19T05:25:12.281Z,100732.86
2018-08-19T05:27:42.082Z,100730.77
2018-08-19T05:30:12.009Z,100739.87
2018-08-19T05:32:47.753Z,100738.20
2018-08-19T05:35:18.159Z,100740.83
2018-08-19T05:37:47.958Z,100743.31
2018-08-19T05:40:18.093Z,100744.59
2018-08-19T05:42:48.202Z,100744.03
2018-08-19T05:45:17.997Z,100743.06
2018-08-19T05:47:57.713Z,100739.76
2018-08-19T05:50:27.552Z,100743.72
2018-08-19T05:52:57.648Z,100744.94
2018-08-19T05:55:27.643Z,100752.11
2018-08-19T05:57:57.533Z,100757.11
2018-08-19T06:00:28.602Z,100759.84
2018-08-19T06:03:01.137Z,100763.09
2018-08-19T06:05:31.630Z,100765.33
2018-08-19T06:08:08.174Z,100769.64
2018-08-19T06:10:38.120Z,100768.80
2018-08-19T06:13:08.912Z,100767.84
2018-08-19T06:15:39.171Z,100763.44
2018-08-19T06:18:09.465Z,100771.19
2018-08-19T06:20:39.481Z,100779.10
2018-08-19T06:23:09.354Z,100775.23
2018-08-19T06:25:39.127Z,100782.02
2018-08-19T06:28:09.066Z,100779.48
2018-08-19T06:30:38.905Z,100779.98
2018-08-19T06:33:09.127Z,100781.19
2018-08-19T06:35:38.882Z,100782.55
2018-08-19T06:38:09.007Z,100785.61
2018-08-19T06:40:38.953Z,100783.03
2018-08-19T06:43:09.189Z,100789.91
2018-08-19T06:45:45.416Z,100788.44
2018-08-19T06:48:15.157Z,100787.73
2018-08-19T06:50:45.123Z,100792.30
2018-08-19T06:53:20.012Z,100786.30
2018-08-19T06:55:51.065Z,100783.72
2018-08-19T06:58:21.328Z,100790.98
2018-08-19T07:00:51.189Z,100780.83
2018-08-19T07:03:21.206Z,100789.05
2018-08-19T07:06:05.869Z,100788.80
2018-08-19T07:08:36.185Z,100785.88
2018-08-19T07:11:06.250Z,100787.81
2018-08-19T07:13:36.039Z,100781.14
2018-08-19T07:16:06.040Z,100787.03
2018-08-19T07:18:36.609Z,100787.52
2018-08-19T07:21:07.027Z,100786.77
2018-08-19T07:23:36.966Z,100797.41
2018-08-19T07:26:07.374Z,100796.78
2018-08-19T07:28:37.142Z,100798.12
2018-08-19T07:31:06.957Z,100802.02
2018-08-19T07:33:36.953Z,100812.45
2018-08-19T07:36:06.941Z,100808.55
2018-08-19T07:38:37.202Z,100808.98
2018-08-19T07:41:07.852Z,100817.02
2018-08-19T07:43:38.180Z,100805.22
2018-08-19T07:46:08.164Z,100816.25
2018-08-19T07:48:38.017Z,100806.16
2018-08-19T07:51:08.093Z,100808.15
2018-08-19T07:53:38.171Z,100802.22
2018-08-19T07:56:08.379Z,100806.63
2018-08-19T07:58:43.014Z,100801.92
2018-08-19T08:01:13.347Z,100803.59
2018-08-19T08:03:43.116Z,100801.64
2018-08-19T08:06:13.153Z,100800.84
2018-08-19T08:08:43.002Z,100802.95
2018-08-19T08:11:12.959Z,100801.65
2018-08-19T08:13:43.138Z,100801.06
2018-08-19T08:16:12.982Z,100801.81
2018-08-19T08:18:53.561Z,100795.28
2018-08-19T08:21:24.515Z,100791.34
2018-08-19T08:23:54.459Z,100794.02
2018-08-19T08:26:24.370Z,100797.89
2018-08-19T08:28:59.205Z,100796.06
2018-08-19T08:31:28.986Z,100802.53
2018-08-19T08:33:58.882Z,100804.88
2018-08-19T08:36:28.965Z,100798.84
2018-08-19T08:38:59.064Z,100793.52
2018-08-19T08:41:29.362Z,100789.88
2018-08-19T08:43:59.121Z,100791.67
2018-08-19T08:46:28.931Z,100792.81
2018-08-19T08:48:58.930Z,100790.52
2018-08-19T08:51:28.984Z,100787.11
2018-08-19T08:53:59.666Z,100783.22
2018-08-19T08:56:29.647Z,100779.02
2018-08-19T08:59:00.125Z,100775.14
2018-08-19T09:01:29.981Z,100776.45
2018-08-19T09:04:00.067Z,100776.33
2018-08-19T09:06:30.724Z,100765.79
2018-08-19T09:09:00.861Z,100765.66
2018-08-19T09:11:30.954Z,100766.51
2018-08-19T09:14:01.094Z,100758.49
2018-08-19T09:16:31.144Z,100752.61
2018-08-19T09:19:01.301Z,100748.59
2018-08-19T09:21:31.212Z,100744.55
2018-08-19T09:24:01.221Z,100744.98
2018-08-19T09:29:15.082Z,100750.22
2018-08-19T09:31:45.300Z,100750.05
2018-08-19T09:34:15.175Z,100742.80
2018-08-19T09:36:45.206Z,100748.98
2018-08-19T09:39:15.064Z,100743.10
2018-08-19T09:41:45.657Z,100732.59
2018-08-19T09:44:15.609Z,100734.36
2018-08-19T09:46:45.434Z,100732.19
2018-08-19T09:49:15.421Z,100731.23
2018-08-19T09:51:50.990Z,100730.43
2018-08-19T09:54:25.032Z,100732.55
2018-08-19T09:56:55.298Z,100734.06
2018-08-19T09:59:25.094Z,100728.31
2018-08-19T10:01:55.740Z,100722.39
2018-08-19T10:04:26.789Z,100719.55
2018-08-19T10:07:13.829Z,100718.02
2018-08-19T10:09:44.307Z,100720.34
2018-08-19T10:12:15.553Z,100716.00
2018-08-19T10:14:45.462Z,100706.72
2018-08-19T10:17:15.301Z,100705.91
2018-08-19T10:19:45.125Z,100702.91
2018-08-19T10:22:14.976Z,100697.78
2018-08-19T10:24:45.036Z,100702.98
2018-08-19T10:27:27.531Z,100699.13
2018-08-19T10:29:57.841Z,100700.23
2018-08-19T10:32:27.993Z,100703.00
2018-08-19T10:34:58.325Z,100694.22
2018-08-19T10:37:28.238Z,100702.44
2018-08-19T10:39:58.022Z,100696.70
2018-08-19T10:42:30.634Z,100697.22
2018-08-19T10:45:01.874Z,100686.81
2018-08-19T10:47:32.225Z,100683.22
2018-08-19T10:50:06.052Z,100684.59
2018-08-19T10:52:39.961Z,100688.42
2018-08-19T10:55:11.557Z,100687.55
2018-08-19T10:57:41.984Z,100685.90
2018-08-19T11:00:16.647Z,100680.94
2018-08-19T11:02:46.720Z,100685.84
2018-08-19T11:05:17.245Z,100678.94
2018-08-19T11:07:47.261Z,100671.19
2018-08-19T11:10:21.438Z,100666.88
2018-08-19T11:12:53.764Z,100661.44
2018-08-19T11:15:32.941Z,100663.58
2018-08-19T11:18:15.638Z,100662.92
2018-08-19T11:20:45.933Z,100659.55
2018-08-19T11:23:22.073Z,100664.13
2018-08-19T11:25:53.322Z,100650.33
2018-08-19T11:28:32.429Z,100658.03
2018-08-19T11:31:02.604Z,100649.12
2018-08-19T11:33:42.030Z,100650.37
2018-08-19T11:36:12.764Z,100653.91
2018-08-19T11:38:43.417Z,100647.74
2018-08-19T11:41:13.295Z,100644.50
2018-08-19T11:43:44.520Z,100638.44
2018-08-19T11:46:14.653Z,100638.38
2018-08-19T11:48:44.555Z,100638.86
2018-08-19T11:51:14.807Z,100632.63
2018-08-19T11:53:45.016Z,100634.63
2018-08-19T11:56:15.034Z,100623.53
2018-08-19T11:58:48.417Z,100624.98
2018-08-19T12:01:19.424Z,100617.39
2018-08-19T12:04:15.365Z,100615.59
2018-08-19T12:06:45.221Z,100614.57
2018-08-19T12:09:15.097Z,100616.27
2018-08-19T12:11:46.230Z,100607.84
2018-08-19T12:14:17.109Z,100603.98
2018-08-19T12:16:52.461Z,100605.59
2018-08-19T12:19:29.060Z,100601.72
2018-08-19T12:22:04.366Z,100602.61
2018-08-19T12:24:42.004Z,100597.87
2018-08-19T12:27:16.295Z,100589.20
2018-08-19T12:29:47.855Z,100590.38
2018-08-19T12:32:27.459Z,100589.99
2018-08-19T12:34:59.058Z,100585.05
2018-08-19T12:37:32.444Z,100582.91
2018-08-19T12:40:03.087Z,100571.05
2018-08-19T12:42:38.567Z,100566.30
2018-08-19T12:45:09.748Z,100558.23
2018-08-19T12:47:40.097Z,100564.20
2018-08-19T12:50:16.927Z,100563.08
2018-08-19T12:52:48.143Z,100553.22
2018-08-19T12:55:20.355Z,100551.70
2018-08-19T12:58:22.157Z,100551.44
2018-08-19T13:00:52.268Z,100549.14
2018-08-19T13:03:23.275Z,100546.75
2018-08-19T13:06:02.354Z,100544.78
2018-08-19T13:08:32.164Z,100543.42
2018-08-19T13:11:05.430Z,100536.79
2018-08-19T13:13:35.432Z,100533.40
2018-08-19T13:16:05.377Z,100534.16
2018-08-19T13:18:43.376Z,100537.21
2018-08-19T13:21:19.133Z,100525.57
2018-08-19T13:23:49.038Z,100524.48
2018-08-19T13:26:19.053Z,100524.87
2018-08-19T13:28:53.154Z,100511.73
2018-08-19T13:31:26.948Z,100505.66
2018-08-19T13:33:57.265Z,100507.34
2018-08-19T13:36:27.235Z,100507.03
2018-08-19T13:38:57.138Z,100510.68
2018-08-19T13:41:27.139Z,100506.28
2018-08-19T13:43:57.033Z,100503.14
2018-08-19T13:46:27.196Z,100501.89
2018-08-19T13:48:57.320Z,100495.89
2018-08-19T13:51:27.561Z,100498.78
2018-08-19T13:53:57.618Z,100490.94
2018-08-19T13:56:28.203Z,100488.89
2018-08-19T13:58:58.097Z,100487.84
2018-08-19T14:01:28.201Z,100480.94
2018-08-19T14:03:58.118Z,100486.81
2018-08-19T14:06:28.122Z,100482.40
2018-08-19T14:08:58.070Z,100482.44
2018-08-19T14:11:28.289Z,100473.41
2018-08-19T14:13:58.227Z,100475.33
2018-08-19T14:16:28.302Z,100474.89
2018-08-19T14:18:58.254Z,100471.24
2018-08-19T14:21:28.225Z,100467.34
2018-08-19T14:23:58.190Z,100464.84
2018-08-19T14:26:28.178Z,100448.15
2018-08-19T14:28:58.125Z,100454.67
2018-08-19T14:31:28.134Z,100449.75
2018-08-19T14:33:58.221Z,100445.41
2018-08-19T14:36:28.264Z,100449.02
2018-08-19T14:38:58.349Z,100440.44
2018-08-19T14:41:28.283Z,100432.84
2018-08-19T14:44:05.641Z,100440.49
2018-08-19T14:46:35.888Z,100440.74
2018-08-19T14:49:07.279Z,100436.48
2018-08-19T14:51:59.412Z,100428.36
2018-08-19T14:54:29.353Z,100423.72
2018-08-19T14:56:59.254Z,100432.47
2018-08-19T14:59:29.121Z,100427.23
2018-08-19T15:02:01.834Z,100431.88
2018-08-19T15:04:31.965Z,100422.08
2018-08-19T15:07:02.043Z,100422.66
2018-08-19T15:09:33.131Z,100411.53
2018-08-19T15:12:12.166Z,100411.92
2018-08-19T15:14:42.116Z,100412.55
2018-08-19T15:17:13.923Z,100408.02
2018-08-19T15:19:46.218Z,100402.10
2018-08-19T15:22:16.823Z,100404.15
2018-08-19T15:24:47.033Z,100395.59
2018-08-19T15:27:17.744Z,100394.30
2018-08-19T15:29:49.544Z,100390.58
2018-08-19T15:32:21.102Z,100391.84
2018-08-19T15:34:51.024Z,100388.08
2018-08-19T15:37:21.548Z,100388.78
2018-08-19T15:39:51.527Z,100386.20
2018-08-19T15:42:21.434Z,100384.03
2018-08-19T15:44:51.296Z,100377.64
2018-08-19T15:47:21.195Z,100375.00
2018-08-19T15:50:00.764Z,100375.00
2018-08-19T15:52:30.623Z,100375.41
2018-08-19T15:55:01.221Z,100368.14
2018-08-19T15:57:31.486Z,100368.94
2018-08-19T16:00:02.177Z,100363.26
2018-08-19T16:02:32.164Z,100362.08
2018-08-19T16:05:05.443Z,100361.58
2018-08-19T16:07:35.417Z,100357.60
2018-08-19T16:10:05.745Z,100355.87
2018-08-19T16:12:38.084Z,100357.97
2018-08-19T16:15:12.132Z,100360.73
2018-08-19T16:17:42.333Z,100357.77
2018-08-19T16:20:12.261Z,100358.02
2018-08-19T16:22:42.137Z,100355.33
2018-08-19T16:25:12.213Z,100353.95
2018-08-19T16:27:42.342Z,100349.05
2018-08-19T16:30:12.244Z,100349.97
2018-08-19T16:32:42.322Z,100345.87
2018-08-19T16:35:12.224Z,100347.21
2018-08-19T16:37:42.593Z,100348.34
2018-08-19T16:40:14.492Z,100342.81
2018-08-19T16:42:44.609Z,100337.92
2018-08-19T16:45:14.562Z,100343.49
2018-08-19T16:47:44.736Z,100346.86
2018-08-19T16:50:15.183Z,100342.16
2018-08-19T16:52:45.349Z,100348.31
2018-08-19T16:55:15.224Z,100348.40
2018-08-19T16:57:45.249Z,100341.77
2018-08-19T17:00:15.716Z,100343.14
2018-08-19T17:02:45.940Z,100340.64
2018-08-19T17:05:32.766Z,100337.81
2018-08-19T17:08:02.940Z,100342.27
2018-08-19T17:10:33.151Z,100340.41
2018-08-19T17:13:03.049Z,100341.58
2018-08-19T17:15:33.104Z,100342.34
2018-08-19T17:18:03.167Z,100345.25
2018-08-19T17:20:33.029Z,100345.46
2018-08-19T17:23:03.265Z,100337.45
2018-08-19T17:25:33.077Z,100336.92
2018-08-19T17:28:07.946Z,100341.12
2018-08-19T17:30:38.056Z,100346.98
2018-08-19T17:33:10.097Z,100337.48
2018-08-19T17:35:42.210Z,100338.98
2018-08-19T17:38:12.676Z,100340.95
2018-08-19T17:40:42.532Z,100338.05
2018-08-19T17:43:12.505Z,100338.44
2018-08-19T17:45:42.466Z,100331.67
2018-08-19T17:48:12.695Z,100337.58
2018-08-19T17:50:42.817Z,100342.37
2018-08-19T17:53:12.662Z,100337.29
2018-08-19T17:55:43.070Z,100335.13
2018-08-19T17:58:13.133Z,100339.34
2018-08-19T18:00:42.982Z,100335.34
2018-08-19T18:03:13.341Z,100348.03
2018-08-19T18:05:43.176Z,100341.25
2018-08-19T18:08:13.313Z,100343.19
2018-08-19T18:10:47.241Z,100343.52
2018-08-19T18:13:17.221Z,100345.52
2018-08-19T18:15:47.321Z,100346.67
2018-08-19T18:18:17.246Z,100348.36
2018-08-19T18:20:47.025Z,100349.45
2018-08-19T18:23:33.381Z,100354.69
2018-08-19T18:26:03.137Z,100358.02
2018-08-19T18:28:33.680Z,100356.70
2018-08-19T18:33:57.815Z,100355.89
2018-08-19T18:36:29.029Z,100357.56
2018-08-19T18:38:59.605Z,100356.19
2018-08-19T18:41:36.183Z,100358.61
2018-08-19T18:44:07.696Z,100366.23
2018-08-19T18:46:37.851Z,100358.86
2018-08-19T18:49:12.492Z,100357.19
2018-08-19T18:51:44.330Z,100361.55
2018-08-19T18:54:31.206Z,100358.48
2018-08-19T18:57:02.495Z,100354.63
2018-08-19T18:59:32.428Z,100363.05
2018-08-19T19:02:03.727Z,100368.73
2018-08-19T19:04:33.869Z,100360.25
2018-08-19T19:07:03.976Z,100363.75
2018-08-19T19:09:48.876Z,100364.47
2018-08-19T19:12:22.606Z,100361.69
2018-08-19T19:14:52.574Z,100360.86
2018-08-19T19:17:22.490Z,100355.09
2018-08-19T19:19:52.393Z,100350.66
2018-08-19T19:22:22.659Z,100348.36
2018-08-19T19:24:53.687Z,100340.84
2018-08-19T19:27:23.867Z,100341.64
2018-08-19T19:29:59.230Z,100335.36
2018-08-19T19:32:29.530Z,100344.81
2018-08-19T19:35:06.590Z,100336.56
2018-08-19T19:37:36.591Z,100342.48
2018-08-19T19:40:09.651Z,100337.55
2018-08-19T19:42:39.572Z,100344.23
2018-08-19T19:45:09.593Z,100347.17
2018-08-19T19:47:39.602Z,100348.72
2018-08-19T19:50:10.172Z,100345.98
2018-08-19T19:52:45.738Z,100344.63
2018-08-19T19:55:15.854Z,100342.64
2018-08-19T19:57:46.045Z,100342.73
2018-08-19T20:00:15.937Z,100341.58
2018-08-19T20:02:46.750Z,100338.86
2018-08-19T20:05:21.781Z,100342.61
2018-08-19T20:07:52.717Z,100340.66
2018-08-19T20:10:27.416Z,100335.45
2018-08-19T20:12:57.448Z,100339.97
2018-08-19T20:15:27.337Z,100339.61
2018-08-19T20:17:57.481Z,100332.47
2018-08-19T20:20:27.409Z,100335.87
2018-08-19T20:22:57.390Z,100334.21
2018-08-19T20:25:27.293Z,100325.14
2018-08-19T20:28:01.878Z,100333.18
2018-08-19T20:30:32.173Z,100333.91
2018-08-19T20:33:02.268Z,100334.55
2018-08-19T20:35:32.398Z,100336.41
2018-08-19T20:38:02.265Z,100332.26
2018-08-19T20:40:32.111Z,100328.08
2018-08-19T20:43:03.999Z,100333.17
2018-08-19T20:45:34.161Z,100330.92
2018-08-19T20:48:04.105Z,100333.02
2018-08-19T20:50:33.931Z,100335.56
2018-08-19T20:53:04.125Z,100329.50
2018-08-19T20:55:34.024Z,100322.47
2018-08-19T20:58:03.865Z,100326.64
2018-08-19T21:00:34.284Z,100325.16
2018-08-19T21:03:04.381Z,100322.03
2018-08-19T21:05:34.525Z,100332.00
2018-08-19T21:08:06.994Z,100327.89
2018-08-19T21:10:37.279Z,100326.51
2018-08-19T21:13:12.315Z,100332.80
2018-08-19T21:15:43.937Z,100327.84
2018-08-19T21:18:14.005Z,100326.30
2018-08-19T21:20:44.515Z,100328.83
2018-08-19T21:23:14.293Z,100325.52
2018-08-19T21:25:50.914Z,100317.50
2018-08-19T21:28:21.509Z,100325.73
2018-08-19T21:30:51.438Z,100327.67
2018-08-19T21:33:21.215Z,100323.91
2018-08-19T21:35:53.147Z,100324.97
2018-08-19T21:38:22.980Z,100321.19
2018-08-19T21:40:56.445Z,100320.61
2018-08-19T21:43:28.257Z,100316.80
2018-08-19T21:45:58.623Z,100317.69
2018-08-19T21:48:28.378Z,100317.52
2018-08-19T21:50:58.237Z,100309.00
2018-08-19T21:53:28.149Z,100308.41
2018-08-19T21:55:57.884Z,100315.19
2018-08-19T21:58:27.889Z,100302.89
2018-08-19T22:02:02.206Z,100309.39
2018-08-19T22:04:32.094Z,100310.31
2018-08-19T22:07:01.900Z,100315.02
2018-08-19T22:09:36.959Z,100306.70
2018-08-19T22:12:08.765Z,100313.20
2018-08-19T22:14:38.607Z,100307.92
2018-08-19T22:17:12.283Z,100309.41
2018-08-19T22:19:42.242Z,100303.48
2018-08-19T22:22:12.041Z,100302.66
2018-08-19T22:24:41.964Z,100303.11
2018-08-19T22:27:17.567Z,100301.31
2018-08-19T22:29:47.461Z,100297.66
2018-08-19T22:32:17.385Z,100288.78
2018-08-19T22:34:47.120Z,100287.45
2018-08-19T22:37:17.294Z,100286.73
2018-08-19T22:39:48.160Z,100286.10
2018-08-19T22:42:18.000Z,100279.64
2018-08-19T22:44:48.072Z,100274.91
2018-08-19T22:47:17.848Z,100279.52
2018-08-19T22:49:48.249Z,100276.89
2018-08-19T22:52:24.589Z,100278.55
2018-08-19T22:54:58.220Z,100276.74
2018-08-19T22:57:28.800Z,100276.29
2018-08-19T22:59:58.873Z,100267.87
2018-08-19T23:02:29.278Z,100268.44
2018-08-19T23:04:59.245Z,100266.26
2018-08-19T23:07:29.058Z,100259.94
2018-08-19T23:09:58.969Z,100259.39
2018-08-19T23:12:29.401Z,100261.04
2018-08-19T23:16:08.220Z,100255.98
2018-08-19T23:18:39.417Z,100261.30
2018-08-19T23:21:10.125Z,100258.91
2018-08-19T23:23:40.709Z,100261.25
2018-08-19T23:26:11.341Z,100253.87
2018-08-19T23:28:42.738Z,100252.34
2018-08-19T23:31:13.328Z,100255.28
2018-08-19T23:33:44.758Z,100255.28
2018-08-19T23:36:15.445Z,100257.37
2018-08-19T23:38:46.713Z,100254.67
2018-08-19T23:41:17.395Z,100256.48
2018-08-19T23:43:48.665Z,100248.74
2018-08-19T23:46:19.361Z,100252.28
2018-08-19T23:48:50.682Z,100256.78
2018-08-19T23:51:27.264Z,100255.91
2018-08-19T23:53:57.148Z,100247.44
2018-08-19T23:56:27.014Z,100249.68
2018-08-19T23:58:57.598Z,100248.39
